MSC Levina — 3FJR8 — position and weather

sailwx.info

Track history (hours):
 
Tides and Currents Weather Stations Pressure Air Temp Water Temp Dewpoint Dewpoint Depression Visibility Wind Speed Wind Dir Waves Ship Positions

MSC Levina

Last reported at 2015-Jul-23 20:33 UTC. Time now 2015-Jul-28 15:23 UTC.
Position N 39°54' W 011°08'.

Length 227.6 m; beam 32.2 m; draft 12.1 m.

Type: Cargo ship. MMSI: 355609000.

Date/timePositionNaut miles runAvg speedWind from/ knotsBaromVisibWave heightAir tempDewpointWater temp
2015-Jul-23 20:33N 39°54' W 011°08'1514.8
2015-Jul-23 19:33N 40°09' W 011°03'61213.9
2015-Jul-21 23:30N 49°18' W 004°43'8313.6
2015-Jul-21 17:24N 49°59' W 002°51'1416.6
2015-Jul-21 16:33N 50°02' W 002°30'6014.9
2015-Jul-21 12:31N 49°56' W 000°57'2714.0
2015-Jul-21 10:33N 49°39' W 000°24'1413.6
2015-Jul-21 09:33N 49°32' W 000°06'1110.6
2015-Jul-21 08:33N 49°27' E 000°09'0 0.3
2015-Jul-21 07:31N 49°28' E 000°09'0 0.0
2015-Jul-21 06:33N 49°28' E 000°09'0 0.0
2015-Jul-21 05:33N 49°28' E 000°09'0 0.0
2015-Jul-21 04:33N 49°28' E 000°09'0 0.0
2015-Jul-21 03:33N 49°28' E 000°09'0 0.0
2015-Jul-21 02:33N 49°28' E 000°09'0 0.0
2015-Jul-21 01:33N 49°28' E 000°09'0 0.0
2015-Jul-21 00:33N 49°28' E 000°09'0 0.0
2015-Jul-20 23:33N 49°28' E 000°09'0 0.0
2015-Jul-20 22:33N 49°28' E 000°09'0 0.0
2015-Jul-20 21:33N 49°28' E 000°09'0 0.0
2015-Jul-20 20:33N 49°28' E 000°09'0 0.0
2015-Jul-20 19:33N 49°28' E 000°09'0 0.0
2015-Jul-20 18:33N 49°28' E 000°09'0 0.0
2015-Jul-20 17:33N 49°28' E 000°09'0 0.0
2015-Jul-20 16:33N 49°28' E 000°09'0 0.0
2015-Jul-20 15:33N 49°28' E 000°09'0 0.0
2015-Jul-20 14:33N 49°28' E 000°09'9 9.5
2015-Jul-20 13:33N 49°31' W 000°05'7 6.9
2015-Jul-20 12:33N 49°35' W 000°14'0 0.4
2015-Jul-20 11:32N 49°35' W 000°13'0 0.1
2015-Jul-20 10:32N 49°35' W 000°13'0 0.0
2015-Jul-20 09:32N 49°35' W 000°13'0 0.2
2015-Jul-20 08:32N 49°35' W 000°13'0 0.3
2015-Jul-20 07:33N 49°35' W 000°14'9 9.3
2015-Jul-20 06:33N 49°44' W 000°10'1414.3
2015-Jul-20 05:33N 49°59' W 000°11'3113.8
2015-Jul-20 03:16N 50°30' W 000°00'1315.5
2015-Jul-20 02:25N 50°33' E 000°20'1214.3
2015-Jul-20 01:33N 50°37' E 000°38'1413.7
2015-Jul-20 00:33N 50°46' E 000°55'1413.7
2015-Jul-19 23:32N 50°55' E 001°11'1515.4
2015-Jul-19 22:34N 51°05' E 001°29'1716.7
2015-Jul-19 21:33N 51°18' E 001°47'1515.3
2015-Jul-19 20:34N 51°33' E 001°49'1514.5
2015-Jul-19 19:34N 51°47' E 001°43'1111.5
2015-Jul-19 18:34N 51°56' E 001°32'9 8.9
2015-Jul-19 17:33N 51°58' E 001°18'0 0.0
2015-Jul-19 16:33N 51°58' E 001°18'0 0.0
2015-Jul-19 15:33N 51°58' E 001°18'0 0.0
2015-Jul-19 14:33N 51°58' E 001°18'0 0.0
2015-Jul-19 13:30N 51°58' E 001°18'0 0.0
2015-Jul-19 12:33N 51°58' E 001°18'0 0.0
2015-Jul-19 11:33N 51°58' E 001°18'0 0.0
2015-Jul-19 10:33N 51°58' E 001°18'0 0.0
2015-Jul-19 09:33N 51°58' E 001°18'0 0.0
2015-Jul-19 08:33N 51°58' E 001°18'0 0.2
2015-Jul-19 07:34N 51°57' E 001°18'9 9.2
2015-Jul-19 06:34N 51°56' E 001°33'8 8.0
2015-Jul-19 05:34N 51°52' E 001°43'5 5.1
2015-Jul-19 04:33N 51°48' E 001°49'4210.6
2015-Jul-19 00:33N 51°22' E 002°43'1111.3
2015-Jul-18 23:33N 51°24' E 003°01'1717.0
2015-Jul-18 22:33N 51°25' E 003°28'1111.2
2015-Jul-18 21:33N 51°22' E 003°45'1111.3
2015-Jul-18 20:33N 51°23' E 004°03'9 9.0
2015-Jul-18 19:33N 51°21' E 004°17'0 0.3
2015-Jul-18 18:33N 51°21' E 004°18'2 1.7
2015-Jul-18 17:33N 51°20' E 004°20'0 0.1
2015-Jul-18 16:33N 51°19' E 004°20'0 0.0
2015-Jul-18 15:33N 51°19' E 004°20'0 0.0
2015-Jul-18 14:33N 51°20' E 004°20'0 0.0
2015-Jul-18 13:33N 51°19' E 004°20'0 0.0
2015-Jul-18 12:33N 51°19' E 004°20'0 0.0
2015-Jul-18 11:33N 51°20' E 004°20'0 0.0
2015-Jul-18 10:27N 51°20' E 004°20'0 0.0
2015-Jul-18 09:33N 51°20' E 004°20'0 0.0
2015-Jul-18 08:33N 51°19' E 004°20'0 0.0
2015-Jul-18 07:33N 51°19' E 004°20'0 0.0
2015-Jul-18 06:33N 51°20' E 004°20'0 0.0
2015-Jul-18 05:33N 51°19' E 004°20'0 0.0
2015-Jul-18 04:33N 51°19' E 004°20'0 0.0
2015-Jul-18 03:30N 51°19' E 004°20'0 0.0
2015-Jul-18 02:27N 51°20' E 004°20'0 0.0
2015-Jul-18 01:33N 51°20' E 004°20'0 0.0
2015-Jul-18 00:33N 51°19' E 004°20'0 0.0
2015-Jul-17 23:24N 51°19' E 004°20'0 0.0
2015-Jul-17 22:33N 51°19' E 004°20'0 0.0
2015-Jul-17 21:33N 51°19' E 004°20'0 0.0
2015-Jul-17 20:33N 51°19' E 004°20'0 0.0
2015-Jul-17 19:33N 51°19' E 004°20'0 0.0
2015-Jul-17 18:33N 51°19' E 004°20'0 0.0
2015-Jul-17 17:21N 51°20' E 004°20'0 0.0
2015-Jul-17 16:33N 51°19' E 004°20'0 0.0
2015-Jul-17 15:33N 51°19' E 004°20'0 0.0
2015-Jul-17 14:33N 51°19' E 004°20'0 0.0
2015-Jul-17 13:30N 51°20' E 004°20'0 0.0
2015-Jul-17 12:33N 51°19' E 004°20'0 0.0
2015-Jul-17 11:33N 51°20' E 004°20'0 0.0
2015-Jul-17 10:30N 51°19' E 004°20'0 0.0
2015-Jul-17 09:33N 51°20' E 004°20'0 0.0
2015-Jul-17 08:30N 51°19' E 004°20'2 1.8
2015-Jul-17 07:33N 51°21' E 004°18'0 0.4
2015-Jul-17 06:34N 51°21' E 004°17'5 5.2
2015-Jul-17 05:33N 51°23' E 004°09'8 7.6
2015-Jul-17 04:33N 51°24' E 003°57'10 9.8
2015-Jul-17 03:33N 51°25' E 003°42'1111.0
2015-Jul-17 02:33N 51°25' E 003°24'1515.2
2015-Jul-17 01:33N 51°27' E 003°00'1515.5
2015-Jul-17 00:34N 51°40' E 003°13'9 8.6
2015-Jul-16 23:33N 51°49' E 003°15'1313.2
2015-Jul-16 22:33N 52°02' E 003°20'1918.7
2015-Jul-16 21:33N 52°20' E 003°26'1919.6
2015-Jul-16 20:34N 52°39' E 003°33'1919.2
2015-Jul-16 19:33N 52°54' E 003°54'1818.2
2015-Jul-16 18:34N 53°07' E 004°15'2016.9
2015-Jul-16 17:24N 53°24' E 004°31'1417.1
2015-Jul-16 16:34N 53°37' E 004°40'2018.3
2015-Jul-16 15:28N 53°56' E 004°51'1718.6
2015-Jul-16 14:34N 54°12' E 005°02'7518.5
2015-Jul-16 10:31N 55°20' E 005°54'19714.8
2015-Jul-15 21:15N 57°48' E 009°49'1217.1
2015-Jul-15 20:33N 57°50' E 010°12'1716.2
2015-Jul-15 19:30N 57°49' E 010°43'1617.0
2015-Jul-15 18:34N 57°38' E 011°06'1716.9
2015-Jul-15 17:33N 57°26' E 011°28'1817.9
2015-Jul-15 16:33N 57°09' E 011°39'2017.9
2015-Jul-15 15:28N 56°51' E 011°51'1616.9
2015-Jul-15 14:33N 56°36' E 011°44'7815.0
2015-Jul-15 09:19N 55°21' E 011°03'1013.8
2015-Jul-15 08:33N 55°10' E 011°01'1615.5
2015-Jul-15 07:33N 54°55' E 010°53'1515.5
2015-Jul-15 06:33N 54°40' E 010°49'1515.5
2015-Jul-15 05:34N 54°35' E 011°14'1616.1
2015-Jul-15 04:34N 54°28' E 011°39'1615.9
2015-Jul-15 03:33N 54°26' E 012°06'1814.9
2015-Jul-15 02:20N 54°40' E 012°27'3316.6
2015-Jul-15 00:21N 54°54' E 013°18'3116.6
2015-Jul-14 22:30N 54°40' E 014°06'1616.9
2015-Jul-14 21:34N 54°38' E 014°33'1817.1
2015-Jul-14 20:31N 54°43' E 015°03'1717.2
2015-Jul-14 19:33N 54°51' E 015°29'5717.1
2015-Jul-14 16:13N 55°17' E 016°57'2018.2
2015-Jul-14 15:09N 55°26' E 017°28'1118.2
2015-Jul-14 14:33N 55°31' E 017°45'3717.7
2015-Jul-14 12:26N 55°38' E 018°50'  
Track history (hours):
 
Tides and Currents Weather Stations Pressure Air Temp Water Temp Dewpoint Dewpoint Depression Visibility Wind Speed Wind Dir Waves Ship Positions

MSC Levina

Last reported at 2015-Jul-23 20:33 UTC. Time now 2015-Jul-28 15:23 UTC.
Position N 39°54' W 011°08'.

Length 227.6 m; beam 32.2 m; draft 12.1 m.

Type: Cargo ship. MMSI: 355609000.

Date/timePositionNaut miles runAvg speedWind from/ knotsBaromVisibWave heightAir tempDewpointWater temp
2015-Jul-23 20:33N 39°54' W 011°08'1514.8
2015-Jul-23 19:33N 40°09' W 011°03'61213.9
2015-Jul-21 23:30N 49°18' W 004°43'8313.6
2015-Jul-21 17:24N 49°59' W 002°51'1416.6
2015-Jul-21 16:33N 50°02' W 002°30'6014.9
2015-Jul-21 12:31N 49°56' W 000°57'2714.0
2015-Jul-21 10:33N 49°39' W 000°24'1413.6
2015-Jul-21 09:33N 49°32' W 000°06'1110.6
2015-Jul-21 08:33N 49°27' E 000°09'0 0.3
2015-Jul-21 07:31N 49°28' E 000°09'0 0.0
2015-Jul-21 06:33N 49°28' E 000°09'0 0.0
2015-Jul-21 05:33N 49°28' E 000°09'0 0.0
2015-Jul-21 04:33N 49°28' E 000°09'0 0.0
2015-Jul-21 03:33N 49°28' E 000°09'0 0.0
2015-Jul-21 02:33N 49°28' E 000°09'0 0.0
2015-Jul-21 01:33N 49°28' E 000°09'0 0.0
2015-Jul-21 00:33N 49°28' E 000°09'0 0.0
2015-Jul-20 23:33N 49°28' E 000°09'0 0.0
2015-Jul-20 22:33N 49°28' E 000°09'0 0.0
2015-Jul-20 21:33N 49°28' E 000°09'0 0.0
2015-Jul-20 20:33N 49°28' E 000°09'0 0.0
2015-Jul-20 19:33N 49°28' E 000°09'0 0.0
2015-Jul-20 18:33N 49°28' E 000°09'0 0.0
2015-Jul-20 17:33N 49°28' E 000°09'0 0.0
2015-Jul-20 16:33N 49°28' E 000°09'0 0.0
2015-Jul-20 15:33N 49°28' E 000°09'0 0.0
2015-Jul-20 14:33N 49°28' E 000°09'9 9.5
2015-Jul-20 13:33N 49°31' W 000°05'7 6.9
2015-Jul-20 12:33N 49°35' W 000°14'0 0.4
2015-Jul-20 11:32N 49°35' W 000°13'0 0.1
2015-Jul-20 10:32N 49°35' W 000°13'0 0.0
2015-Jul-20 09:32N 49°35' W 000°13'0 0.2
2015-Jul-20 08:32N 49°35' W 000°13'0 0.3
2015-Jul-20 07:33N 49°35' W 000°14'9 9.3
2015-Jul-20 06:33N 49°44' W 000°10'1414.3
2015-Jul-20 05:33N 49°59' W 000°11'3113.8
2015-Jul-20 03:16N 50°30' W 000°00'1315.5
2015-Jul-20 02:25N 50°33' E 000°20'1214.3
2015-Jul-20 01:33N 50°37' E 000°38'1413.7
2015-Jul-20 00:33N 50°46' E 000°55'1413.7
2015-Jul-19 23:32N 50°55' E 001°11'1515.4
2015-Jul-19 22:34N 51°05' E 001°29'1716.7
2015-Jul-19 21:33N 51°18' E 001°47'1515.3
2015-Jul-19 20:34N 51°33' E 001°49'1514.5
2015-Jul-19 19:34N 51°47' E 001°43'1111.5
2015-Jul-19 18:34N 51°56' E 001°32'9 8.9
2015-Jul-19 17:33N 51°58' E 001°18'0 0.0
2015-Jul-19 16:33N 51°58' E 001°18'0 0.0
2015-Jul-19 15:33N 51°58' E 001°18'0 0.0
2015-Jul-19 14:33N 51°58' E 001°18'0 0.0
2015-Jul-19 13:30N 51°58' E 001°18'0 0.0
2015-Jul-19 12:33N 51°58' E 001°18'0 0.0
2015-Jul-19 11:33N 51°58' E 001°18'0 0.0
2015-Jul-19 10:33N 51°58' E 001°18'0 0.0
2015-Jul-19 09:33N 51°58' E 001°18'0 0.0
2015-Jul-19 08:33N 51°58' E 001°18'0 0.2
2015-Jul-19 07:34N 51°57' E 001°18'9 9.2
2015-Jul-19 06:34N 51°56' E 001°33'8 8.0
2015-Jul-19 05:34N 51°52' E 001°43'5 5.1
2015-Jul-19 04:33N 51°48' E 001°49'4210.6
2015-Jul-19 00:33N 51°22' E 002°43'1111.3
2015-Jul-18 23:33N 51°24' E 003°01'1717.0
2015-Jul-18 22:33N 51°25' E 003°28'1111.2
2015-Jul-18 21:33N 51°22' E 003°45'1111.3
2015-Jul-18 20:33N 51°23' E 004°03'9 9.0
2015-Jul-18 19:33N 51°21' E 004°17'0 0.3
2015-Jul-18 18:33N 51°21' E 004°18'2 1.7
2015-Jul-18 17:33N 51°20' E 004°20'0 0.1
2015-Jul-18 16:33N 51°19' E 004°20'0 0.0
2015-Jul-18 15:33N 51°19' E 004°20'0 0.0
2015-Jul-18 14:33N 51°20' E 004°20'0 0.0
2015-Jul-18 13:33N 51°19' E 004°20'0 0.0
2015-Jul-18 12:33N 51°19' E 004°20'0 0.0
2015-Jul-18 11:33N 51°20' E 004°20'0 0.0
2015-Jul-18 10:27N 51°20' E 004°20'0 0.0
2015-Jul-18 09:33N 51°20' E 004°20'0 0.0
2015-Jul-18 08:33N 51°19' E 004°20'0 0.0
2015-Jul-18 07:33N 51°19' E 004°20'0 0.0
2015-Jul-18 06:33N 51°20' E 004°20'0 0.0
2015-Jul-18 05:33N 51°19' E 004°20'0 0.0
2015-Jul-18 04:33N 51°19' E 004°20'0 0.0
2015-Jul-18 03:30N 51°19' E 004°20'0 0.0
2015-Jul-18 02:27N 51°20' E 004°20'0 0.0
2015-Jul-18 01:33N 51°20' E 004°20'0 0.0
2015-Jul-18 00:33N 51°19' E 004°20'0 0.0
2015-Jul-17 23:24N 51°19' E 004°20'0 0.0
2015-Jul-17 22:33N 51°19' E 004°20'0 0.0
2015-Jul-17 21:33N 51°19' E 004°20'0 0.0
2015-Jul-17 20:33N 51°19' E 004°20'0 0.0
2015-Jul-17 19:33N 51°19' E 004°20'0 0.0
2015-Jul-17 18:33N 51°19' E 004°20'0 0.0
2015-Jul-17 17:21N 51°20' E 004°20'0 0.0
2015-Jul-17 16:33N 51°19' E 004°20'0 0.0
2015-Jul-17 15:33N 51°19' E 004°20'0 0.0
2015-Jul-17 14:33N 51°19' E 004°20'0 0.0
2015-Jul-17 13:30N 51°20' E 004°20'0 0.0
2015-Jul-17 12:33N 51°19' E 004°20'0 0.0
2015-Jul-17 11:33N 51°20' E 004°20'0 0.0
2015-Jul-17 10:30N 51°19' E 004°20'0 0.0
2015-Jul-17 09:33N 51°20' E 004°20'0 0.0
2015-Jul-17 08:30N 51°19' E 004°20'2 1.8
2015-Jul-17 07:33N 51°21' E 004°18'0 0.4
2015-Jul-17 06:34N 51°21' E 004°17'5 5.2
2015-Jul-17 05:33N 51°23' E 004°09'8 7.6
2015-Jul-17 04:33N 51°24' E 003°57'10 9.8
2015-Jul-17 03:33N 51°25' E 003°42'1111.0
2015-Jul-17 02:33N 51°25' E 003°24'1515.2
2015-Jul-17 01:33N 51°27' E 003°00'1515.5
2015-Jul-17 00:34N 51°40' E 003°13'9 8.6
2015-Jul-16 23:33N 51°49' E 003°15'1313.2
2015-Jul-16 22:33N 52°02' E 003°20'1918.7
2015-Jul-16 21:33N 52°20' E 003°26'1919.6
2015-Jul-16 20:34N 52°39' E 003°33'1919.2
2015-Jul-16 19:33N 52°54' E 003°54'1818.2
2015-Jul-16 18:34N 53°07' E 004°15'2016.9
2015-Jul-16 17:24N 53°24' E 004°31'1417.1
2015-Jul-16 16:34N 53°37' E 004°40'2018.3
2015-Jul-16 15:28N 53°56' E 004°51'1718.6
2015-Jul-16 14:34N 54°12' E 005°02'7518.5
2015-Jul-16 10:31N 55°20' E 005°54'19714.8
2015-Jul-15 21:15N 57°48' E 009°49'1217.1
2015-Jul-15 20:33N 57°50' E 010°12'1716.2
2015-Jul-15 19:30N 57°49' E 010°43'1617.0
2015-Jul-15 18:34N 57°38' E 011°06'1716.9
2015-Jul-15 17:33N 57°26' E 011°28'1817.9
2015-Jul-15 16:33N 57°09' E 011°39'2017.9
2015-Jul-15 15:28N 56°51' E 011°51'1616.9
2015-Jul-15 14:33N 56°36' E 011°44'7815.0
2015-Jul-15 09:19N 55°21' E 011°03'1013.8
2015-Jul-15 08:33N 55°10' E 011°01'1615.5
2015-Jul-15 07:33N 54°55' E 010°53'1515.5
2015-Jul-15 06:33N 54°40' E 010°49'1515.5
2015-Jul-15 05:34N 54°35' E 011°14'1616.1
2015-Jul-15 04:34N 54°28' E 011°39'1615.9
2015-Jul-15 03:33N 54°26' E 012°06'1814.9
2015-Jul-15 02:20N 54°40' E 012°27'3316.6
2015-Jul-15 00:21N 54°54' E 013°18'3116.6
2015-Jul-14 22:30N 54°40' E 014°06'1616.9
2015-Jul-14 21:34N 54°38' E 014°33'1817.1
2015-Jul-14 20:31N 54°43' E 015°03'1717.2
2015-Jul-14 19:33N 54°51' E 015°29'5717.1
2015-Jul-14 16:13N 55°17' E 016°57'2018.2
2015-Jul-14 15:09N 55°26' E 017°28'1118.2
2015-Jul-14 14:33N 55°31' E 017°45'3717.7
2015-Jul-14 12:26N 55°38' E 018°50'  

Dump ship's entire track history